createdAt,value
2023-03-16T00:00:56.211Z,96595.45
2023-03-16T00:03:23.935Z,96588.23
2023-03-16T00:05:54.172Z,96599.80
2023-03-16T00:08:22.369Z,96598.22
2023-03-16T00:10:52.247Z,96601.63
2023-03-16T00:13:23.328Z,96597.81
2023-03-16T00:15:58.507Z,96596.77
2023-03-16T00:18:28.730Z,96593.70
2023-03-16T00:21:01.780Z,96594.63
2023-03-16T00:23:29.686Z,96592.08
2023-03-16T00:26:01.526Z,96600.30
2023-03-16T00:28:32.731Z,96603.70
2023-03-16T00:31:02.736Z,96597.42
2023-03-16T00:33:32.415Z,96601.47
2023-03-16T00:36:02.434Z,96603.59
2023-03-16T00:38:34.336Z,96603.29
2023-03-16T00:41:04.283Z,96595.21
2023-03-16T00:43:35.960Z,96599.11
2023-03-16T00:46:05.642Z,96604.68
2023-03-16T00:48:38.150Z,96606.97
2023-03-16T00:51:09.530Z,96616.17
2023-03-16T00:53:37.083Z,96618.64
2023-03-16T00:56:06.399Z,96617.48
2023-03-16T00:58:36.542Z,96616.44
2023-03-16T01:01:09.269Z,96623.50
2023-03-16T01:03:37.375Z,96623.42
2023-03-16T01:06:10.481Z,96616.43
2023-03-16T01:08:40.302Z,96620.39
2023-03-16T01:11:12.824Z,96626.03
2023-03-16T01:13:40.464Z,96623.59
2023-03-16T01:16:10.294Z,96621.48
2023-03-16T01:18:38.841Z,96625.36
2023-03-16T01:21:08.697Z,96624.34
2023-03-16T01:23:37.211Z,96625.92
2023-03-16T01:26:05.579Z,96629.73
2023-03-16T01:28:34.369Z,96631.80
2023-03-16T01:31:09.601Z,96628.06
2023-03-16T01:33:38.425Z,96630.69
2023-03-16T01:36:14.638Z,96635.83
2023-03-16T01:38:44.996Z,96637.45
2023-03-16T01:41:15.437Z,96644.97
2023-03-16T01:43:43.285Z,96638.06
2023-03-16T01:46:25.375Z,96646.67
2023-03-16T01:49:11.967Z,96646.98
2023-03-16T01:51:53.491Z,96644.10
2023-03-16T01:54:46.603Z,96643.70
2023-03-16T01:57:25.103Z,96647.09
2023-03-16T01:59:57.921Z,96647.96
2023-03-16T02:02:29.986Z,96651.55
2023-03-16T02:05:38.900Z,96647.25
2023-03-16T02:08:10.128Z,96651.80
2023-03-16T02:10:39.196Z,96660.31
2023-03-16T02:13:07.354Z,96663.95
2023-03-16T02:15:35.654Z,96666.20
2023-03-16T02:18:06.859Z,96673.17
2023-03-16T02:20:51.630Z,96674.53
2023-03-16T02:23:22.019Z,96682.83
2023-03-16T02:26:25.459Z,96680.05
2023-03-16T02:29:29.276Z,96684.57
2023-03-16T02:31:59.528Z,96684.41
2023-03-16T02:34:28.831Z,96688.05
2023-03-16T02:36:58.761Z,96692.30
2023-03-16T02:39:26.573Z,96687.88
2023-03-16T02:41:54.480Z,96690.56
2023-03-16T02:44:34.204Z,96690.23
2023-03-16T02:47:07.550Z,96688.05
2023-03-16T02:49:42.453Z,96688.50
2023-03-16T02:52:11.068Z,96694.11
2023-03-16T02:54:44.481Z,96693.27
2023-03-16T02:57:13.458Z,96695.56
2023-03-16T02:59:44.769Z,96693.03
2023-03-16T03:02:13.520Z,96695.72
2023-03-16T03:04:47.390Z,96692.80
2023-03-16T03:07:16.394Z,96693.91
2023-03-16T03:09:48.105Z,96699.36
2023-03-16T03:12:16.201Z,96705.12
2023-03-16T03:14:44.509Z,96713.84
2023-03-16T03:17:12.904Z,96710.67
2023-03-16T03:19:41.661Z,96714.94
2023-03-16T03:22:11.291Z,96717.89
2023-03-16T03:24:39.618Z,96718.84
2023-03-16T03:27:07.288Z,96726.48
2023-03-16T03:29:36.099Z,96727.38
2023-03-16T03:32:05.299Z,96726.66
2023-03-16T03:34:33.155Z,96737.80
2023-03-16T03:37:00.762Z,96742.00
2023-03-16T03:39:28.926Z,96743.41
2023-03-16T03:41:56.535Z,96747.38
2023-03-16T03:44:26.322Z,96753.22
2023-03-16T03:46:56.564Z,96751.25
2023-03-16T03:49:26.521Z,96758.70
2023-03-16T03:51:55.134Z,96764.80
2023-03-16T03:54:25.180Z,96764.15
2023-03-16T03:56:54.647Z,96760.11
2023-03-16T03:59:22.687Z,96767.56
2023-03-16T04:02:07.190Z,96762.28
2023-03-16T04:04:41.669Z,96762.34
2023-03-16T04:07:11.088Z,96767.72
2023-03-16T04:09:39.390Z,96771.27
2023-03-16T04:12:08.414Z,96778.64
2023-03-16T04:14:36.284Z,96776.81
2023-03-16T04:17:06.898Z,96782.19
2023-03-16T04:19:35.997Z,96793.50
2023-03-16T04:22:04.639Z,96789.30
2023-03-16T04:24:34.070Z,96792.31
2023-03-16T04:27:02.398Z,96791.98
2023-03-16T04:29:30.044Z,96790.47
2023-03-16T04:31:58.234Z,96788.89
2023-03-16T04:34:26.377Z,96795.38
2023-03-16T04:36:55.986Z,96801.14
2023-03-16T04:39:23.932Z,96806.02
2023-03-16T04:41:51.534Z,96813.63
2023-03-16T04:44:20.942Z,96822.77
2023-03-16T04:46:49.788Z,96825.00
2023-03-16T04:49:18.333Z,96835.52
2023-03-16T04:51:46.252Z,96836.31
2023-03-16T04:54:15.921Z,96837.65
2023-03-16T04:56:44.345Z,96841.98
2023-03-16T04:59:29.424Z,96839.61
2023-03-16T05:02:04.841Z,96844.05
2023-03-16T05:04:33.951Z,96855.53
2023-03-16T05:07:01.525Z,96852.23
2023-03-16T05:09:31.006Z,96859.19
2023-03-16T05:11:58.948Z,96854.27
2023-03-16T05:14:27.130Z,96865.76
2023-03-16T05:17:14.202Z,96855.50
2023-03-16T05:19:42.234Z,96869.41
2023-03-16T05:22:10.614Z,96869.97
2023-03-16T05:24:39.185Z,96871.25
2023-03-16T05:27:07.013Z,96880.52
2023-03-16T05:29:34.941Z,96882.09
2023-03-16T05:32:03.180Z,96884.78
2023-03-16T05:34:32.260Z,96895.55
2023-03-16T05:36:59.956Z,96889.31
2023-03-16T05:39:28.090Z,96897.38
2023-03-16T05:41:56.066Z,96906.80
2023-03-16T05:44:25.773Z,96908.94
2023-03-16T05:47:04.022Z,96918.41
2023-03-16T05:49:33.368Z,96914.98
2023-03-16T05:52:03.629Z,96927.23
2023-03-16T05:54:32.940Z,96930.80
2023-03-16T05:57:00.557Z,96942.90
2023-03-16T05:59:28.938Z,96936.64
2023-03-16T06:01:57.774Z,96945.45
2023-03-16T06:04:26.873Z,96949.72
2023-03-16T06:06:54.789Z,96953.69
2023-03-16T06:09:24.515Z,96959.80
2023-03-16T06:11:52.264Z,96960.33
2023-03-16T06:14:20.981Z,96962.17
2023-03-16T06:16:48.745Z,96967.98
2023-03-16T06:19:16.984Z,96974.71
2023-03-16T06:21:45.474Z,96983.33
2023-03-16T06:24:13.417Z,96983.56
2023-03-16T06:26:41.205Z,96989.69
2023-03-16T06:29:11.255Z,96988.66
2023-03-16T06:31:40.328Z,96988.89
2023-03-16T06:34:08.271Z,96992.38
2023-03-16T06:36:38.068Z,96997.20
2023-03-16T06:39:06.744Z,97004.62
2023-03-16T06:41:39.085Z,97006.02
2023-03-16T06:44:07.145Z,97015.25
2023-03-16T06:46:37.378Z,97026.88
2023-03-16T06:49:05.303Z,97026.51
2023-03-16T06:51:33.477Z,97023.08
2023-03-16T06:54:01.482Z,97033.12
2023-03-16T06:56:31.163Z,97028.83
2023-03-16T06:58:59.053Z,97029.65
2023-03-16T07:01:27.056Z,97033.36
2023-03-16T07:03:54.846Z,97036.29
2023-03-16T07:06:42.529Z,97031.70
2023-03-16T07:09:29.540Z,97033.55
2023-03-16T07:11:57.066Z,97041.06
2023-03-16T07:14:25.737Z,97044.22
2023-03-16T07:16:54.295Z,97040.19
2023-03-16T07:19:22.771Z,97056.51
2023-03-16T07:21:51.067Z,97052.89
2023-03-16T07:24:20.619Z,97056.93
2023-03-16T07:26:48.597Z,97057.91
2023-03-16T07:29:18.184Z,97057.91
2023-03-16T07:31:46.331Z,97059.38
2023-03-16T07:34:16.011Z,97068.56
2023-03-16T07:36:47.666Z,97068.74
2023-03-16T07:39:17.210Z,97068.23
2023-03-16T07:41:44.848Z,97072.03
2023-03-16T07:44:17.594Z,97069.95
2023-03-16T07:46:47.362Z,97074.26
2023-03-16T07:49:16.296Z,97074.85
2023-03-16T07:51:44.169Z,97074.66
2023-03-16T07:54:13.548Z,97074.69
2023-03-16T07:56:48.862Z,97071.23
2023-03-16T07:59:12.984Z,97074.28
2023-03-16T08:01:41.141Z,97080.86
2023-03-16T08:04:11.831Z,97085.55
2023-03-16T08:06:39.609Z,97087.06
2023-03-16T08:09:07.935Z,97088.03
2023-03-16T08:11:37.627Z,97086.06
2023-03-16T08:14:06.418Z,97089.53
2023-03-16T08:16:44.611Z,97099.16
2023-03-16T08:19:12.713Z,97100.09
2023-03-16T08:21:59.762Z,97103.69
2023-03-16T08:24:11.526Z,97113.60
2023-03-16T08:26:40.229Z,97110.08
2023-03-16T08:29:08.458Z,97111.20
2023-03-16T08:31:36.930Z,97115.81
2023-03-16T08:34:10.379Z,97114.52
2023-03-16T08:36:39.953Z,97113.73
2023-03-16T08:39:07.908Z,97117.21
2023-03-16T08:41:40.727Z,97120.74
2023-03-16T08:44:10.477Z,97123.80
2023-03-16T08:46:38.817Z,97121.98
2023-03-16T08:49:06.802Z,97133.84
2023-03-16T08:51:34.583Z,97135.79
2023-03-16T08:54:02.826Z,97131.25
2023-03-16T08:56:32.035Z,97145.68
2023-03-16T08:58:59.661Z,97145.20
2023-03-16T09:01:27.513Z,97143.48
2023-03-16T09:03:55.376Z,97152.34
2023-03-16T09:06:23.970Z,97154.73
2023-03-16T09:08:52.415Z,97163.00
2023-03-16T09:11:21.710Z,97166.91
2023-03-16T09:13:52.419Z,97169.84
2023-03-16T09:16:22.093Z,97172.21
2023-03-16T09:18:49.842Z,97179.44
2023-03-16T09:21:18.106Z,97184.50
2023-03-16T09:23:45.999Z,97182.81
2023-03-16T09:26:14.597Z,97180.55
2023-03-16T09:28:42.480Z,97183.28
2023-03-16T09:31:19.404Z,97188.47
2023-03-16T09:33:47.578Z,97201.53
2023-03-16T09:36:15.736Z,97200.74
2023-03-16T09:38:44.441Z,97206.34
2023-03-16T09:41:40.574Z,97215.08
2023-03-16T09:44:39.446Z,97216.66
2023-03-16T09:47:10.882Z,97219.66
2023-03-16T09:49:44.062Z,97219.46
2023-03-16T09:52:42.479Z,97220.75
2023-03-16T09:55:31.572Z,97219.61
2023-03-16T09:58:01.557Z,97222.50
2023-03-16T10:00:40.924Z,97231.45
2023-03-16T10:03:21.098Z,97232.33
2023-03-16T10:05:54.319Z,97234.77
2023-03-16T10:08:42.799Z,97232.08
2023-03-16T10:11:33.998Z,97233.42
2023-03-16T10:14:22.455Z,97241.14
2023-03-16T10:17:02.555Z,97244.37
2023-03-16T10:19:53.658Z,97239.75
2023-03-16T10:22:29.433Z,97247.92
2023-03-16T10:25:45.294Z,97251.44
2023-03-16T10:28:20.723Z,97252.60
2023-03-16T10:30:51.670Z,97256.16
2023-03-16T10:33:30.049Z,97261.15
2023-03-16T10:36:21.071Z,97260.05
2023-03-16T10:38:59.229Z,97265.87
2023-03-16T10:41:34.879Z,97264.19
2023-03-16T10:44:16.325Z,97270.94
2023-03-16T10:46:50.744Z,97261.53
2023-03-16T10:49:28.420Z,97264.42
2023-03-16T10:52:00.474Z,97275.75
2023-03-16T10:54:34.907Z,97266.89
2023-03-16T10:57:16.620Z,97275.53
2023-03-16T10:59:52.340Z,97272.15
2023-03-16T11:02:27.013Z,97270.71
2023-03-16T11:04:56.001Z,97272.30
2023-03-16T11:07:25.203Z,97274.09
2023-03-16T11:09:55.521Z,97274.61
2023-03-16T11:12:30.813Z,97271.13
2023-03-16T11:15:25.169Z,97283.33
2023-03-16T11:17:51.443Z,97277.30
2023-03-16T11:20:28.048Z,97281.37
2023-03-16T11:22:56.263Z,97283.81
2023-03-16T11:25:37.344Z,97274.06
2023-03-16T11:28:16.370Z,97274.86
2023-03-16T11:33:58.325Z,97280.77
2023-03-16T11:36:37.309Z,97281.66
2023-03-16T11:39:40.042Z,97287.42
2023-03-16T11:42:15.814Z,97291.72
2023-03-16T11:45:04.999Z,97289.42
2023-03-16T11:47:38.024Z,97294.80
2023-03-16T11:50:29.662Z,97297.14
2023-03-16T11:53:22.190Z,97294.87
2023-03-16T11:55:59.094Z,97296.88
2023-03-16T11:58:48.891Z,97300.91
2023-03-16T12:01:39.434Z,97304.93
2023-03-16T12:04:46.046Z,97302.10
2023-03-16T12:07:20.062Z,97311.75
2023-03-16T12:10:29.576Z,97309.86
2023-03-16T12:13:24.466Z,97306.41
2023-03-16T12:15:57.464Z,97310.09
2023-03-16T12:19:06.279Z,97313.94
2023-03-16T12:21:45.021Z,97320.41
2023-03-16T12:24:21.528Z,97318.41
2023-03-16T12:26:49.650Z,97320.08
2023-03-16T12:29:42.251Z,97318.16
2023-03-16T12:32:21.238Z,97324.32
2023-03-16T12:34:54.129Z,97327.34
2023-03-16T12:37:48.647Z,97329.33
2023-03-16T12:40:40.130Z,97326.13
2023-03-16T12:43:25.668Z,97324.56
2023-03-16T12:46:07.786Z,97331.55
2023-03-16T12:48:44.057Z,97328.02
2023-03-16T12:51:13.748Z,97336.38
2023-03-16T12:53:52.819Z,97332.56
2023-03-16T12:56:31.498Z,97334.39
2023-03-16T12:59:02.826Z,97339.98
2023-03-16T13:01:38.088Z,97343.09
2023-03-16T13:04:23.157Z,97341.41
2023-03-16T13:07:04.731Z,97352.64
2023-03-16T13:09:36.644Z,97356.67
2023-03-16T13:12:06.072Z,97353.16
2023-03-16T13:14:41.188Z,97353.38
2023-03-16T13:17:23.025Z,97353.41
2023-03-16T13:20:29.177Z,97356.85
2023-03-16T13:22:52.738Z,97355.45
2023-03-16T13:25:31.800Z,97358.14
2023-03-16T13:28:00.152Z,97361.34
2023-03-16T13:30:33.836Z,97360.94
2023-03-16T13:33:16.356Z,97364.80
2023-03-16T13:35:46.508Z,97367.09
2023-03-16T13:38:16.969Z,97365.81
2023-03-16T13:40:54.778Z,97369.40
2023-03-16T13:43:32.074Z,97372.70
2023-03-16T13:46:00.537Z,97374.98
2023-03-16T13:48:29.398Z,97377.59
2023-03-16T13:50:58.351Z,97372.59
2023-03-16T13:53:29.976Z,97378.37
2023-03-16T13:56:01.821Z,97381.11
2023-03-16T13:58:35.411Z,97383.09
2023-03-16T14:01:07.764Z,97382.75
2023-03-16T14:03:39.090Z,97382.39
2023-03-16T14:06:10.467Z,97385.56
2023-03-16T14:08:40.130Z,97385.83
2023-03-16T14:11:10.202Z,97394.27
2023-03-16T14:13:38.983Z,97395.77
2023-03-16T14:16:17.173Z,97399.30
2023-03-16T14:19:07.888Z,97398.53
2023-03-16T14:21:36.579Z,97402.69
2023-03-16T14:24:07.271Z,97407.88
2023-03-16T14:26:45.990Z,97411.46
2023-03-16T14:29:31.633Z,97409.05
2023-03-16T14:31:59.887Z,97411.30
2023-03-16T14:34:33.486Z,97415.58
2023-03-16T14:37:12.529Z,97411.55
2023-03-16T14:39:41.295Z,97423.05
2023-03-16T14:42:26.852Z,97422.23
2023-03-16T14:44:56.684Z,97428.75
2023-03-16T14:47:30.276Z,97426.81
2023-03-16T14:50:06.257Z,97438.02
2023-03-16T14:52:35.025Z,97434.36
2023-03-16T14:55:14.023Z,97439.34
2023-03-16T14:57:44.608Z,97442.72
2023-03-16T15:00:17.451Z,97446.43
2023-03-16T15:03:06.064Z,97446.23
2023-03-16T15:05:38.534Z,97446.90
2023-03-16T15:08:15.262Z,97455.27
2023-03-16T15:10:44.868Z,97456.53
2023-03-16T15:13:40.134Z,97460.91
2023-03-16T15:16:11.922Z,97457.58
2023-03-16T15:18:41.288Z,97468.97
2023-03-16T15:21:22.191Z,97469.09
2023-03-16T15:23:49.916Z,97475.67
2023-03-16T15:26:24.561Z,97484.67
2023-03-16T15:28:51.048Z,97481.48
2023-03-16T15:31:18.604Z,97489.36
2023-03-16T15:33:46.459Z,97490.28
2023-03-16T15:36:21.612Z,97496.75
2023-03-16T15:38:52.715Z,97495.98
2023-03-16T15:41:20.846Z,97504.34
2023-03-16T15:43:48.622Z,97510.83
2023-03-16T15:46:16.558Z,97512.73
2023-03-16T15:48:44.389Z,97522.70
2023-03-16T15:51:22.865Z,97514.66
2023-03-16T15:53:58.828Z,97516.31
2023-03-16T15:56:32.239Z,97524.42
2023-03-16T15:59:05.567Z,97523.34
2023-03-16T16:01:38.998Z,97531.16
2023-03-16T16:04:15.112Z,97543.47
2023-03-16T16:06:43.205Z,97540.78
2023-03-16T16:09:10.921Z,97545.03
2023-03-16T16:11:40.762Z,97552.52
2023-03-16T16:14:15.121Z,97553.55
2023-03-16T16:16:47.788Z,97564.46
2023-03-16T16:19:16.242Z,97568.42
2023-03-16T16:21:44.165Z,97567.20
2023-03-16T16:24:11.996Z,97564.89
2023-03-16T16:26:56.170Z,97570.08
2023-03-16T16:29:26.673Z,97581.00
2023-03-16T16:31:54.688Z,97581.44
2023-03-16T16:34:24.023Z,97579.27
2023-03-16T16:36:53.352Z,97587.01
2023-03-16T16:39:21.719Z,97585.61
2023-03-16T16:41:53.575Z,97591.45
2023-03-16T16:44:26.684Z,97601.13
2023-03-16T16:46:54.783Z,97601.63
2023-03-16T16:49:30.066Z,97607.52
2023-03-16T16:51:58.501Z,97615.53
2023-03-16T16:54:29.968Z,97614.71
2023-03-16T16:57:00.221Z,97616.85
2023-03-16T16:59:34.252Z,97625.17
2023-03-16T17:02:06.459Z,97624.06
2023-03-16T17:04:34.351Z,97624.34
2023-03-16T17:07:02.358Z,97628.87
2023-03-16T17:09:30.494Z,97636.94
2023-03-16T17:12:00.820Z,97643.41
2023-03-16T17:14:30.330Z,97646.66
2023-03-16T17:17:04.393Z,97645.86
2023-03-16T17:19:32.248Z,97657.96
2023-03-16T17:22:00.931Z,97660.92
2023-03-16T17:24:29.538Z,97667.42
2023-03-16T17:26:59.981Z,97668.27
2023-03-16T17:29:33.468Z,97674.75
2023-03-16T17:32:04.304Z,97679.03
2023-03-16T17:34:33.884Z,97679.03
2023-03-16T17:37:02.350Z,97686.00
2023-03-16T17:39:33.436Z,97676.66
2023-03-16T17:42:06.665Z,97688.84
2023-03-16T17:44:39.414Z,97696.70
2023-03-16T17:47:26.853Z,97693.24
2023-03-16T17:49:56.333Z,97693.54
2023-03-16T17:52:27.860Z,97699.96
2023-03-16T17:54:55.596Z,97704.52
2023-03-16T17:57:28.554Z,97712.83
2023-03-16T17:59:56.744Z,97718.73
2023-03-16T18:02:55.597Z,97716.30
2023-03-16T18:05:34.190Z,97718.19
2023-03-16T18:08:26.111Z,97725.45
2023-03-16T18:11:07.198Z,97730.84
2023-03-16T18:13:38.671Z,97730.84
2023-03-16T18:16:07.706Z,97737.80
2023-03-16T18:18:42.296Z,97736.94
2023-03-16T18:21:19.412Z,97737.73
2023-03-16T18:23:48.803Z,97737.98
2023-03-16T18:26:17.533Z,97750.31
2023-03-16T18:28:45.984Z,97751.10
2023-03-16T18:31:25.824Z,97751.33
2023-03-16T18:34:00.225Z,97756.39
2023-03-16T18:36:37.334Z,97760.89
2023-03-16T18:39:09.809Z,97760.58
2023-03-16T18:41:37.707Z,97762.94
2023-03-16T18:44:25.350Z,97771.52
2023-03-16T18:46:58.580Z,97773.58
2023-03-16T18:49:35.976Z,97772.16
2023-03-16T18:52:07.964Z,97779.66
2023-03-16T18:54:35.773Z,97780.45
2023-03-16T18:57:05.265Z,97785.03
2023-03-16T18:59:32.727Z,97790.17
2023-03-16T19:02:00.940Z,97782.42
2023-03-16T19:04:32.545Z,97780.80
2023-03-16T19:07:00.273Z,97793.73
2023-03-16T19:09:30.600Z,97788.87
2023-03-16T19:11:59.111Z,97791.56
2023-03-16T19:14:34.556Z,97790.77
2023-03-16T19:17:02.543Z,97792.43
2023-03-16T19:19:30.315Z,97803.24
2023-03-16T19:22:15.321Z,97798.93
2023-03-16T19:24:50.539Z,97807.59
2023-03-16T19:27:28.534Z,97812.77
2023-03-16T19:29:56.241Z,97811.25
2023-03-16T19:32:23.932Z,97816.39
2023-03-16T19:34:51.693Z,97819.95
2023-03-16T19:37:19.362Z,97820.52
2023-03-16T19:39:47.144Z,97825.64
2023-03-16T19:42:25.613Z,97827.85
2023-03-16T19:44:53.083Z,97829.71
2023-03-16T19:47:35.810Z,97828.41
2023-03-16T19:50:14.007Z,97827.09
2023-03-16T19:52:41.977Z,97826.84
2023-03-16T19:55:14.020Z,97834.38
2023-03-16T19:57:42.496Z,97839.80
2023-03-16T20:00:24.785Z,97847.06
2023-03-16T20:02:55.860Z,97844.64
2023-03-16T20:05:28.380Z,97849.52
2023-03-16T20:08:00.879Z,97854.91
2023-03-16T20:10:31.467Z,97854.95
2023-03-16T20:13:01.361Z,97861.91
2023-03-16T20:15:32.738Z,97865.68
2023-03-16T20:18:00.443Z,97865.44
2023-03-16T20:20:33.067Z,97865.20
2023-03-16T20:23:00.931Z,97863.61
2023-03-16T20:25:34.554Z,97869.80
2023-03-16T20:28:03.299Z,97870.34
2023-03-16T20:30:31.368Z,97873.32
2023-03-16T20:32:59.001Z,97876.55
2023-03-16T20:35:31.822Z,97876.81
2023-03-16T20:37:59.715Z,97876.81
2023-03-16T20:40:27.781Z,97877.91
2023-03-16T20:42:55.929Z,97879.00
2023-03-16T20:45:30.021Z,97875.78
2023-03-16T20:47:57.840Z,97880.90
2023-03-16T20:50:29.426Z,97880.90
2023-03-16T20:52:57.539Z,97890.30
2023-03-16T20:55:28.566Z,97889.80
2023-03-16T20:57:57.032Z,97898.92
2023-03-16T21:00:34.938Z,97894.13
2023-03-16T21:03:07.125Z,97897.13
2023-03-16T21:05:35.204Z,97892.30
2023-03-16T21:08:03.117Z,97896.08
2023-03-16T21:10:31.300Z,97900.66
2023-03-16T21:12:59.090Z,97902.52
2023-03-16T21:15:32.843Z,97903.60
2023-03-16T21:18:04.179Z,97903.85
2023-03-16T21:20:35.052Z,97902.52
2023-03-16T21:23:03.510Z,97910.31
2023-03-16T21:25:39.407Z,97901.75
2023-03-16T21:28:10.300Z,97906.08
2023-03-16T21:30:42.776Z,97905.83
2023-03-16T21:33:18.664Z,97910.70
2023-03-16T21:35:46.599Z,97914.23
2023-03-16T21:38:18.821Z,97913.98
2023-03-16T21:40:48.149Z,97919.06
2023-03-16T21:43:16.732Z,97925.56
2023-03-16T21:45:46.255Z,97921.84
2023-03-16T21:48:19.602Z,97928.05
2023-03-16T21:50:48.011Z,97927.02
2023-03-16T21:53:21.666Z,97926.23
2023-03-16T21:55:50.124Z,97928.66
2023-03-16T21:58:19.018Z,97934.86
2023-03-16T22:00:47.637Z,97940.00
2023-03-16T22:03:48.008Z,97937.60
2023-03-16T22:06:01.829Z,97937.89
2023-03-16T22:08:33.868Z,97944.63
2023-03-16T22:11:02.518Z,97941.16
2023-03-16T22:13:29.964Z,97945.47
2023-03-16T22:15:58.413Z,97949.23
2023-03-16T22:18:36.318Z,97953.28
2023-03-16T22:21:35.853Z,97950.87
2023-03-16T22:24:07.100Z,97953.03
2023-03-16T22:26:35.172Z,97960.01
2023-03-16T22:29:27.590Z,97959.73
2023-03-16T22:32:06.392Z,97955.75
2023-03-16T22:34:56.440Z,97961.10
2023-03-16T22:37:28.861Z,97957.36
2023-03-16T22:39:58.508Z,97962.72
2023-03-16T22:42:36.393Z,97967.27
2023-03-16T22:45:21.152Z,97965.66
2023-03-16T22:47:49.590Z,97969.70
2023-03-16T22:50:21.028Z,97980.15
2023-03-16T22:52:52.760Z,97978.27
2023-03-16T22:55:33.793Z,97981.50
2023-03-16T22:58:24.570Z,97979.62
2023-03-16T23:00:52.475Z,97985.24
2023-03-16T23:03:22.790Z,97988.20
2023-03-16T23:05:50.601Z,97996.22
2023-03-16T23:08:22.717Z,97995.69
2023-03-16T23:10:53.972Z,97998.34
2023-03-16T23:13:24.747Z,97997.53
2023-03-16T23:15:53.363Z,97998.31
2023-03-16T23:18:24.863Z,98001.27
2023-03-16T23:20:52.834Z,98002.59
2023-03-16T23:23:20.767Z,98011.39
2023-03-16T23:25:48.747Z,98016.19
2023-03-16T23:28:21.075Z,98022.85
2023-03-16T23:30:49.212Z,98023.88
2023-03-16T23:33:17.209Z,98025.47
2023-03-16T23:35:45.966Z,98031.88
2023-03-16T23:38:13.673Z,98032.11
2023-03-16T23:40:41.626Z,98027.55
2023-03-16T23:43:09.499Z,98033.96
2023-03-16T23:45:42.715Z,98040.89
2023-03-16T23:48:18.494Z,98036.57
2023-03-16T23:50:50.307Z,98043.23
2023-03-16T23:53:19.926Z,98040.80
2023-03-16T23:55:48.259Z,98042.14
2023-03-16T23:58:16.552Z,98045.08
